Terminal Aerodrome Forecast
Issued by NWS Jackson, KY

Home | Current Version | Previous Version | Text Only | Print | Product List | Glossary On
Versions: 1 2 3 4 5 6 7 8 9 10 11 12 13 14 15 16 17 18 19 20 21 22 23
000
FTUS43 KJKL 180500
TAFJKL
TAF
KJKL 180540Z 1806/1906 VRB03KT P6SM BKN080
     FM180900 00000KT 6SM BR BKN080
     FM181100 00000KT 5SM BR FEW002 SCT080
     FM181400 VRB04KT P6SM SCT025 BKN050=

USA.gov is the U.S. government's official web portal to all federal, state and local government web resources and services.